sensor_id;sensor_type;location;lat;lon;timestamp;temperature;humidity
30063;DHT22;16889;67.864;24.990;2023-02-01T00:00:24;-6.10;99.90
30063;DHT22;16889;67.864;24.990;2023-02-01T00:05:10;-6.00;99.90
30063;DHT22;16889;67.864;24.990;2023-02-01T00:09:56;-5.90;99.90
30063;DHT22;16889;67.864;24.990;2023-02-01T00:14:42;-5.80;99.90
30063;DHT22;16889;67.864;24.990;2023-02-01T00:19:28;-5.80;99.90
30063;DHT22;16889;67.864;24.990;2023-02-01T00:24:14;-5.60;99.90
30063;DHT22;16889;67.864;24.990;2023-02-01T00:29:02;-5.50;99.90
30063;DHT22;16889;67.864;24.990;2023-02-01T00:33:49;-5.40;99.90
30063;DHT22;16889;67.864;24.990;2023-02-01T00:38:37;-5.30;99.90
30063;DHT22;16889;67.864;24.990;2023-02-01T00:43:23;-5.20;99.90
30063;DHT22;16889;67.864;24.990;2023-02-01T00:48:09;-5.10;99.90
30063;DHT22;16889;67.864;24.990;2023-02-01T00:52:55;-5.10;99.90
30063;DHT22;16889;67.864;24.990;2023-02-01T00:57:40;-5.10;99.90
30063;DHT22;16889;67.864;24.990;2023-02-01T01:02:27;-5.00;99.90
30063;DHT22;16889;67.864;24.990;2023-02-01T01:07:13;-5.00;99.90
30063;DHT22;16889;67.864;24.990;2023-02-01T01:11:59;-5.00;99.90
30063;DHT22;16889;67.864;24.990;2023-02-01T01:16:48;-4.90;99.90
30063;DHT22;16889;67.864;24.990;2023-02-01T01:21:36;-4.90;99.90
30063;DHT22;16889;67.864;24.990;2023-02-01T01:26:24;-5.00;99.90
30063;DHT22;16889;67.864;24.990;2023-02-01T01:31:12;-5.10;99.90
30063;DHT22;16889;67.864;24.990;2023-02-01T01:35:58;-5.10;99.90
30063;DHT22;16889;67.864;24.990;2023-02-01T01:40:48;-5.10;99.90
30063;DHT22;16889;67.864;24.990;2023-02-01T01:45:35;-5.20;99.90
30063;DHT22;16889;67.864;24.990;2023-02-01T01:50:29;-5.10;99.90
30063;DHT22;16889;67.864;24.990;2023-02-01T01:55:18;-5.00;99.90
30063;DHT22;16889;67.864;24.990;2023-02-01T02:00:12;-5.00;99.90
30063;DHT22;16889;67.864;24.990;2023-02-01T02:04:58;-5.00;99.90
30063;DHT22;16889;67.864;24.990;2023-02-01T02:09:44;-5.10;99.90
30063;DHT22;16889;67.864;24.990;2023-02-01T02:14:30;-5.10;99.90
30063;DHT22;16889;67.864;24.990;2023-02-01T02:19:40;-5.10;99.90
30063;DHT22;16889;67.864;24.990;2023-02-01T02:29:48;-5.00;99.90
30063;DHT22;16889;67.864;24.990;2023-02-01T02:34:40;-4.90;99.90
30063;DHT22;16889;67.864;24.990;2023-02-01T02:50:00;-4.80;99.90
30063;DHT22;16889;67.864;24.990;2023-02-01T02:55:07;-5.00;99.90
30063;DHT22;16889;67.864;24.990;2023-02-01T02:59:56;-4.90;99.90
30063;DHT22;16889;67.864;24.990;2023-02-01T03:05:02;-4.80;99.90
30063;DHT22;16889;67.864;24.990;2023-02-01T03:09:49;-4.80;99.90
30063;DHT22;16889;67.864;24.990;2023-02-01T03:14:36;-4.70;99.90
30063;DHT22;16889;67.864;24.990;2023-02-01T03:19:35;-4.70;99.90
30063;DHT22;16889;67.864;24.990;2023-02-01T03:24:39;-4.70;99.90
30063;DHT22;16889;67.864;24.990;2023-02-01T03:30:16;-4.70;99.90
30063;DHT22;16889;67.864;24.990;2023-02-01T03:34:37;-4.70;99.90
30063;DHT22;16889;67.864;24.990;2023-02-01T03:40:08;-4.80;99.90
30063;DHT22;16889;67.864;24.990;2023-02-01T03:50:00;-4.90;99.90
30063;DHT22;16889;67.864;24.990;2023-02-01T03:54:49;-4.80;99.90
30063;DHT22;16889;67.864;24.990;2023-02-01T03:59:39;-4.80;99.90
30063;DHT22;16889;67.864;24.990;2023-02-01T04:04:26;-4.80;99.90
30063;DHT22;16889;67.864;24.990;2023-02-01T04:09:12;-4.80;99.90
30063;DHT22;16889;67.864;24.990;2023-02-01T04:13:58;-4.80;99.90
30063;DHT22;16889;67.864;24.990;2023-02-01T04:18:52;-4.70;99.90
30063;DHT22;16889;67.864;24.990;2023-02-01T04:23:38;-4.90;99.90
30063;DHT22;16889;67.864;24.990;2023-02-01T04:28:24;-4.80;99.90
30063;DHT22;16889;67.864;24.990;2023-02-01T04:33:09;-4.60;99.90
30063;DHT22;16889;67.864;24.990;2023-02-01T04:37:59;-4.50;99.90
30063;DHT22;16889;67.864;24.990;2023-02-01T04:42:46;-4.50;99.90
30063;DHT22;16889;67.864;24.990;2023-02-01T04:47:32;-4.60;99.90
30063;DHT22;16889;67.864;24.990;2023-02-01T04:52:18;-4.60;99.90
30063;DHT22;16889;67.864;24.990;2023-02-01T04:57:03;-4.70;99.90
30063;DHT22;16889;67.864;24.990;2023-02-01T05:01:49;-4.70;99.90
30063;DHT22;16889;67.864;24.990;2023-02-01T05:06:35;-4.70;99.90
30063;DHT22;16889;67.864;24.990;2023-02-01T05:11:21;-4.50;99.90
30063;DHT22;16889;67.864;24.990;2023-02-01T05:16:26;-4.40;99.90
30063;DHT22;16889;67.864;24.990;2023-02-01T05:21:12;-4.50;99.90
30063;DHT22;16889;67.864;24.990;2023-02-01T05:25:59;-4.60;99.90
30063;DHT22;16889;67.864;24.990;2023-02-01T05:30:46;-4.90;99.90
30063;DHT22;16889;67.864;24.990;2023-02-01T05:35:32;-5.00;99.90
30063;DHT22;16889;67.864;24.990;2023-02-01T05:40:18;-5.00;99.90
30063;DHT22;16889;67.864;24.990;2023-02-01T05:45:04;-5.10;99.90
30063;DHT22;16889;67.864;24.990;2023-02-01T05:49:53;-5.10;99.90
30063;DHT22;16889;67.864;24.990;2023-02-01T05:54:39;-5.00;99.90
30063;DHT22;16889;67.864;24.990;2023-02-01T05:59:25;-4.90;99.90
30063;DHT22;16889;67.864;24.990;2023-02-01T06:04:11;-5.00;99.90
30063;DHT22;16889;67.864;24.990;2023-02-01T06:08:57;-5.10;99.90
30063;DHT22;16889;67.864;24.990;2023-02-01T06:13:43;-5.00;99.90
30063;DHT22;16889;67.864;24.990;2023-02-01T06:18:29;-5.00;99.90
30063;DHT22;16889;67.864;24.990;2023-02-01T06:23:16;-5.00;99.90
30063;DHT22;16889;67.864;24.990;2023-02-01T06:28:02;-5.00;99.90
30063;DHT22;16889;67.864;24.990;2023-02-01T06:32:51;-5.10;99.90
30063;DHT22;16889;67.864;24.990;2023-02-01T06:37:39;-5.00;99.90
30063;DHT22;16889;67.864;24.990;2023-02-01T06:42:25;-5.10;99.90
30063;DHT22;16889;67.864;24.990;2023-02-01T06:47:11;-5.20;99.90
30063;DHT22;16889;67.864;24.990;2023-02-01T06:51:57;-5.20;99.90
30063;DHT22;16889;67.864;24.990;2023-02-01T06:56:45;-5.10;99.90
30063;DHT22;16889;67.864;24.990;2023-02-01T07:01:31;-5.20;99.90
30063;DHT22;16889;67.864;24.990;2023-02-01T07:06:18;-5.20;99.90
30063;DHT22;16889;67.864;24.990;2023-02-01T07:11:06;-5.20;99.90
30063;DHT22;16889;67.864;24.990;2023-02-01T07:15:52;-5.20;99.90
30063;DHT22;16889;67.864;24.990;2023-02-01T07:20:38;-5.30;99.90
30063;DHT22;16889;67.864;24.990;2023-02-01T07:25:24;-5.30;99.90
30063;DHT22;16889;67.864;24.990;2023-02-01T07:30:11;-5.40;99.90
30063;DHT22;16889;67.864;24.990;2023-02-01T07:34:58;-5.30;99.90
30063;DHT22;16889;67.864;24.990;2023-02-01T07:39:44;-5.40;99.90
30063;DHT22;16889;67.864;24.990;2023-02-01T07:44:32;-5.50;99.90
30063;DHT22;16889;67.864;24.990;2023-02-01T07:49:18;-5.50;99.90
30063;DHT22;16889;67.864;24.990;2023-02-01T07:54:04;-5.50;99.90
30063;DHT22;16889;67.864;24.990;2023-02-01T07:58:52;-5.50;99.90
30063;DHT22;16889;67.864;24.990;2023-02-01T08:03:38;-5.50;99.90
30063;DHT22;16889;67.864;24.990;2023-02-01T08:08:24;-5.60;99.90
30063;DHT22;16889;67.864;24.990;2023-02-01T08:13:10;-5.60;99.90
30063;DHT22;16889;67.864;24.990;2023-02-01T08:17:56;-5.60;99.90
30063;DHT22;16889;67.864;24.990;2023-02-01T08:22:44;-5.60;99.90
30063;DHT22;16889;67.864;24.990;2023-02-01T08:27:33;-5.50;99.90
30063;DHT22;16889;67.864;24.990;2023-02-01T08:32:19;-5.40;99.90
30063;DHT22;16889;67.864;24.990;2023-02-01T08:37:04;-5.50;99.90
30063;DHT22;16889;67.864;24.990;2023-02-01T08:41:52;-5.40;99.90
30063;DHT22;16889;67.864;24.990;2023-02-01T08:46:57;-5.50;99.90
30063;DHT22;16889;67.864;24.990;2023-02-01T08:51:43;-5.60;99.90
30063;DHT22;16889;67.864;24.990;2023-02-01T08:56:29;-5.70;99.90
30063;DHT22;16889;67.864;24.990;2023-02-01T09:01:16;-5.80;99.90
30063;DHT22;16889;67.864;24.990;2023-02-01T09:06:05;-5.80;99.90
30063;DHT22;16889;67.864;24.990;2023-02-01T09:10:51;-5.70;99.90
30063;DHT22;16889;67.864;24.990;2023-02-01T09:15:37;-5.60;99.90
30063;DHT22;16889;67.864;24.990;2023-02-01T09:20:26;-5.60;99.90
30063;DHT22;16889;67.864;24.990;2023-02-01T09:25:11;-5.40;99.90
30063;DHT22;16889;67.864;24.990;2023-02-01T09:29:57;-5.30;99.90
30063;DHT22;16889;67.864;24.990;2023-02-01T09:34:43;-4.80;99.90
30063;DHT22;16889;67.864;24.990;2023-02-01T09:39:32;-4.60;99.90
30063;DHT22;16889;67.864;24.990;2023-02-01T09:49:16;-4.50;99.90
30063;DHT22;16889;67.864;24.990;2023-02-01T09:54:17;-4.50;99.90
30063;DHT22;16889;67.864;24.990;2023-02-01T09:59:32;-4.50;99.90
30063;DHT22;16889;67.864;24.990;2023-02-01T10:04:20;-4.40;99.90
30063;DHT22;16889;67.864;24.990;2023-02-01T10:09:18;-4.50;99.90
30063;DHT22;16889;67.864;24.990;2023-02-01T10:29:31;-3.80;99.90
30063;DHT22;16889;67.864;24.990;2023-02-01T10:34:25;-3.70;99.90
30063;DHT22;16889;67.864;24.990;2023-02-01T10:39:13;-3.50;99.90
30063;DHT22;16889;67.864;24.990;2023-02-01T10:44:02;-3.50;99.90
30063;DHT22;16889;67.864;24.990;2023-02-01T10:48:52;-3.50;99.90
30063;DHT22;16889;67.864;24.990;2023-02-01T10:53:49;-3.60;99.90
30063;DHT22;16889;67.864;24.990;2023-02-01T10:58:44;-3.60;99.90
30063;DHT22;16889;67.864;24.990;2023-02-01T11:03:53;-3.50;99.90
30063;DHT22;16889;67.864;24.990;2023-02-01T11:08:46;-3.40;99.90
30063;DHT22;16889;67.864;24.990;2023-02-01T11:13:37;-3.40;99.90
30063;DHT22;16889;67.864;24.990;2023-02-01T11:18:29;-3.30;99.90
30063;DHT22;16889;67.864;24.990;2023-02-01T11:23:20;-3.00;99.90
30063;DHT22;16889;67.864;24.990;2023-02-01T11:28:08;-3.00;99.90
30063;DHT22;16889;67.864;24.990;2023-02-01T11:32:55;-3.20;99.90
30063;DHT22;16889;67.864;24.990;2023-02-01T11:37:43;-3.20;99.90
30063;DHT22;16889;67.864;24.990;2023-02-01T11:42:29;-3.20;99.90
30063;DHT22;16889;67.864;24.990;2023-02-01T12:18:40;-3.00;99.90
30063;DHT22;16889;67.864;24.990;2023-02-01T12:23:52;-3.10;99.90
30063;DHT22;16889;67.864;24.990;2023-02-01T12:29:16;-3.00;99.90
30063;DHT22;16889;67.864;24.990;2023-02-01T12:44:10;-2.30;99.90
30063;DHT22;16889;67.864;24.990;2023-02-01T12:49:08;-2.20;99.90
30063;DHT22;16889;67.864;24.990;2023-02-01T12:54:13;-2.10;99.90
30063;DHT22;16889;67.864;24.990;2023-02-01T12:59:04;-2.10;99.90
30063;DHT22;16889;67.864;24.990;2023-02-01T13:04:19;-1.90;99.90
30063;DHT22;16889;67.864;24.990;2023-02-01T13:09:15;-1.90;99.90
30063;DHT22;16889;67.864;24.990;2023-02-01T13:19:45;-2.00;99.90
30063;DHT22;16889;67.864;24.990;2023-02-01T13:29:23;-2.20;99.90
30063;DHT22;16889;67.864;24.990;2023-02-01T13:44:38;-2.30;99.90
30063;DHT22;16889;67.864;24.990;2023-02-01T13:49:31;-2.40;99.90
30063;DHT22;16889;67.864;24.990;2023-02-01T13:54:35;-2.50;99.90
30063;DHT22;16889;67.864;24.990;2023-02-01T14:04:49;-2.90;99.90
30063;DHT22;16889;67.864;24.990;2023-02-01T14:09:35;-2.90;99.90
30063;DHT22;16889;67.864;24.990;2023-02-01T14:14:37;-3.00;99.90
30063;DHT22;16889;67.864;24.990;2023-02-01T14:19:29;-3.10;99.90
30063;DHT22;16889;67.864;24.990;2023-02-01T14:24:31;-3.10;99.90
30063;DHT22;16889;67.864;24.990;2023-02-01T14:34:36;-3.20;99.90
30063;DHT22;16889;67.864;24.990;2023-02-01T14:39:41;-3.30;99.90
30063;DHT22;16889;67.864;24.990;2023-02-01T14:44:37;-3.30;99.90
30063;DHT22;16889;67.864;24.990;2023-02-01T14:49:24;-3.20;99.90
30063;DHT22;16889;67.864;24.990;2023-02-01T14:54:14;-3.20;99.90
30063;DHT22;16889;67.864;24.990;2023-02-01T14:59:07;-3.00;99.90
30063;DHT22;16889;67.864;24.990;2023-02-01T15:04:04;-3.10;99.90
30063;DHT22;16889;67.864;24.990;2023-02-01T15:08:55;-3.30;99.90
30063;DHT22;16889;67.864;24.990;2023-02-01T15:13:49;-3.20;99.90
30063;DHT22;16889;67.864;24.990;2023-02-01T15:18:36;-3.10;99.90
30063;DHT22;16889;67.864;24.990;2023-02-01T15:23:23;-3.00;99.90
30063;DHT22;16889;67.864;24.990;2023-02-01T15:28:14;-2.90;99.90
30063;DHT22;16889;67.864;24.990;2023-02-01T15:37:52;-3.00;99.90
30063;DHT22;16889;67.864;24.990;2023-02-01T15:42:49;-3.10;99.90
30063;DHT22;16889;67.864;24.990;2023-02-01T15:47:37;-3.10;99.90
30063;DHT22;16889;67.864;24.990;2023-02-01T15:52:40;-3.30;99.90
30063;DHT22;16889;67.864;24.990;2023-02-01T15:57:34;-3.30;99.90
30063;DHT22;16889;67.864;24.990;2023-02-01T16:02:26;-3.50;99.90
30063;DHT22;16889;67.864;24.990;2023-02-01T16:07:31;-3.60;99.90
30063;DHT22;16889;67.864;24.990;2023-02-01T16:17:28;-4.00;99.90
30063;DHT22;16889;67.864;24.990;2023-02-01T16:22:17;-4.10;99.90
30063;DHT22;16889;67.864;24.990;2023-02-01T16:27:03;-4.00;99.90
30063;DHT22;16889;67.864;24.990;2023-02-01T16:31:52;-4.10;99.90
30063;DHT22;16889;67.864;24.990;2023-02-01T16:36:38;-4.30;99.90
30063;DHT22;16889;67.864;24.990;2023-02-01T16:41:25;-4.20;99.90
30063;DHT22;16889;67.864;24.990;2023-02-01T16:46:18;-4.40;99.90
30063;DHT22;16889;67.864;24.990;2023-02-01T16:51:12;-4.40;99.90
30063;DHT22;16889;67.864;24.990;2023-02-01T16:55:59;-4.30;99.90
30063;DHT22;16889;67.864;24.990;2023-02-01T17:00:46;-4.30;99.90
30063;DHT22;16889;67.864;24.990;2023-02-01T17:05:32;-4.40;99.90
30063;DHT22;16889;67.864;24.990;2023-02-01T17:10:25;-4.40;99.90
30063;DHT22;16889;67.864;24.990;2023-02-01T17:15:11;-4.20;99.90
30063;DHT22;16889;67.864;24.990;2023-02-01T17:19:57;-4.20;99.90
30063;DHT22;16889;67.864;24.990;2023-02-01T17:24:44;-4.40;99.90
30063;DHT22;16889;67.864;24.990;2023-02-01T17:29:30;-4.20;99.90
30063;DHT22;16889;67.864;24.990;2023-02-01T17:34:16;-4.00;99.90
30063;DHT22;16889;67.864;24.990;2023-02-01T17:39:03;-4.20;99.90
30063;DHT22;16889;67.864;24.990;2023-02-01T17:43:50;-4.30;99.90
30063;DHT22;16889;67.864;24.990;2023-02-01T17:48:37;-4.30;99.90
30063;DHT22;16889;67.864;24.990;2023-02-01T17:53:28;-4.30;99.90
30063;DHT22;16889;67.864;24.990;2023-02-01T17:58:15;-4.40;99.90
30063;DHT22;16889;67.864;24.990;2023-02-01T18:03:02;-4.40;99.90
30063;DHT22;16889;67.864;24.990;2023-02-01T18:07:48;-4.40;99.90
30063;DHT22;16889;67.864;24.990;2023-02-01T18:12:34;-4.60;99.90
30063;DHT22;16889;67.864;24.990;2023-02-01T18:17:20;-4.60;99.90
30063;DHT22;16889;67.864;24.990;2023-02-01T18:22:22;-4.50;99.90
30063;DHT22;16889;67.864;24.990;2023-02-01T18:27:09;-4.70;99.90
30063;DHT22;16889;67.864;24.990;2023-02-01T18:31:55;-4.70;99.90
30063;DHT22;16889;67.864;24.990;2023-02-01T18:36:41;-4.70;99.90
30063;DHT22;16889;67.864;24.990;2023-02-01T18:41:27;-4.70;99.90
30063;DHT22;16889;67.864;24.990;2023-02-01T18:46:13;-4.70;99.90
30063;DHT22;16889;67.864;24.990;2023-02-01T18:50:59;-4.80;99.90
30063;DHT22;16889;67.864;24.990;2023-02-01T18:55:48;-4.80;99.90
30063;DHT22;16889;67.864;24.990;2023-02-01T19:00:35;-4.70;99.90
30063;DHT22;16889;67.864;24.990;2023-02-01T19:05:21;-4.60;99.90
30063;DHT22;16889;67.864;24.990;2023-02-01T19:10:10;-4.60;99.90
30063;DHT22;16889;67.864;24.990;2023-02-01T19:14:56;-4.50;99.90
30063;DHT22;16889;67.864;24.990;2023-02-01T19:19:42;-4.50;99.90
30063;DHT22;16889;67.864;24.990;2023-02-01T19:24:33;-4.40;99.90
30063;DHT22;16889;67.864;24.990;2023-02-01T19:29:18;-4.30;99.90
30063;DHT22;16889;67.864;24.990;2023-02-01T19:34:04;-4.20;99.90
30063;DHT22;16889;67.864;24.990;2023-02-01T19:38:50;-4.10;99.90
30063;DHT22;16889;67.864;24.990;2023-02-01T19:43:37;-4.10;99.90
30063;DHT22;16889;67.864;24.990;2023-02-01T19:48:24;-4.10;99.90
30063;DHT22;16889;67.864;24.990;2023-02-01T19:53:10;-4.20;99.90
30063;DHT22;16889;67.864;24.990;2023-02-01T19:57:56;-4.10;99.90
30063;DHT22;16889;67.864;24.990;2023-02-01T20:02:42;-4.20;99.90
30063;DHT22;16889;67.864;24.990;2023-02-01T20:07:29;-4.30;99.90
30063;DHT22;16889;67.864;24.990;2023-02-01T20:12:15;-4.40;99.90
30063;DHT22;16889;67.864;24.990;2023-02-01T20:17:01;-4.40;99.90
30063;DHT22;16889;67.864;24.990;2023-02-01T20:21:48;-4.60;99.90
30063;DHT22;16889;67.864;24.990;2023-02-01T20:26:34;-4.70;99.90
30063;DHT22;16889;67.864;24.990;2023-02-01T20:31:21;-4.90;99.90
30063;DHT22;16889;67.864;24.990;2023-02-01T20:36:09;-5.10;99.90
30063;DHT22;16889;67.864;24.990;2023-02-01T20:41:03;-5.30;99.90
30063;DHT22;16889;67.864;24.990;2023-02-01T20:45:49;-5.40;99.90
30063;DHT22;16889;67.864;24.990;2023-02-01T20:50:36;-5.60;99.90
30063;DHT22;16889;67.864;24.990;2023-02-01T20:55:22;-5.70;99.90
30063;DHT22;16889;67.864;24.990;2023-02-01T21:00:10;-5.90;99.90
30063;DHT22;16889;67.864;24.990;2023-02-01T21:04:57;-6.00;99.90
30063;DHT22;16889;67.864;24.990;2023-02-01T21:09:43;-6.10;99.90
30063;DHT22;16889;67.864;24.990;2023-02-01T21:14:29;-6.10;99.90
30063;DHT22;16889;67.864;24.990;2023-02-01T21:19:18;-6.30;99.90
30063;DHT22;16889;67.864;24.990;2023-02-01T21:24:04;-6.40;99.90
30063;DHT22;16889;67.864;24.990;2023-02-01T21:28:52;-6.60;99.90
30063;DHT22;16889;67.864;24.990;2023-02-01T21:33:38;-6.60;99.90
30063;DHT22;16889;67.864;24.990;2023-02-01T21:38:26;-6.60;99.90
30063;DHT22;16889;67.864;24.990;2023-02-01T21:43:12;-6.50;99.90
30063;DHT22;16889;67.864;24.990;2023-02-01T21:47:58;-6.30;99.90
30063;DHT22;16889;67.864;24.990;2023-02-01T21:52:46;-6.20;99.90
30063;DHT22;16889;67.864;24.990;2023-02-01T21:57:32;-6.10;99.90
30063;DHT22;16889;67.864;24.990;2023-02-01T22:02:19;-6.10;99.90
30063;DHT22;16889;67.864;24.990;2023-02-01T22:07:05;-6.10;99.90
30063;DHT22;16889;67.864;24.990;2023-02-01T22:11:52;-6.00;99.90
30063;DHT22;16889;67.864;24.990;2023-02-01T22:16:39;-5.90;99.90
30063;DHT22;16889;67.864;24.990;2023-02-01T22:21:25;-5.90;99.90
30063;DHT22;16889;67.864;24.990;2023-02-01T22:26:13;-5.90;99.90
30063;DHT22;16889;67.864;24.990;2023-02-01T22:31:04;-5.90;99.90
30063;DHT22;16889;67.864;24.990;2023-02-01T22:35:51;-5.90;99.90
30063;DHT22;16889;67.864;24.990;2023-02-01T22:40:37;-5.90;99.90
30063;DHT22;16889;67.864;24.990;2023-02-01T22:45:23;-5.90;99.90
30063;DHT22;16889;67.864;24.990;2023-02-01T22:50:09;-5.90;99.90
30063;DHT22;16889;67.864;24.990;2023-02-01T22:54:55;-5.90;99.90
30063;DHT22;16889;67.864;24.990;2023-02-01T22:59:41;-5.90;99.90
30063;DHT22;16889;67.864;24.990;2023-02-01T23:04:27;-5.80;99.90
30063;DHT22;16889;67.864;24.990;2023-02-01T23:09:16;-5.70;99.90
30063;DHT22;16889;67.864;24.990;2023-02-01T23:14:02;-5.70;99.90
30063;DHT22;16889;67.864;24.990;2023-02-01T23:18:48;-5.80;99.90
30063;DHT22;16889;67.864;24.990;2023-02-01T23:23:34;-5.70;99.90
30063;DHT22;16889;67.864;24.990;2023-02-01T23:28:20;-5.60;99.90
30063;DHT22;16889;67.864;24.990;2023-02-01T23:33:06;-5.50;99.90
30063;DHT22;16889;67.864;24.990;2023-02-01T23:37:52;-5.40;99.90
30063;DHT22;16889;67.864;24.990;2023-02-01T23:42:38;-5.40;99.90
30063;DHT22;16889;67.864;24.990;2023-02-01T23:47:24;-5.30;99.90
30063;DHT22;16889;67.864;24.990;2023-02-01T23:52:11;-5.20;99.90
30063;DHT22;16889;67.864;24.990;2023-02-01T23:56:57;-4.90;99.90
